sensor_id;sensor_type;location;lat;lon;timestamp;P1;durP1;ratioP1;P2;durP2;ratioP2
6358;SDS011;3212;51.460;11.868;2023-01-26T00:01:54;15.63;;;6.90;;
6358;SDS011;3212;51.460;11.868;2023-01-26T00:05:16;13.43;;;5.43;;
6358;SDS011;3212;51.460;11.868;2023-01-26T00:08:39;12.93;;;6.13;;
6358;SDS011;3212;51.460;11.868;2023-01-26T00:12:02;16.00;;;6.60;;
6358;SDS011;3212;51.460;11.868;2023-01-26T00:15:24;13.30;;;5.90;;
6358;SDS011;3212;51.460;11.868;2023-01-26T00:18:47;13.90;;;6.57;;
6358;SDS011;3212;51.460;11.868;2023-01-26T00:22:10;13.50;;;6.00;;
6358;SDS011;3212;51.460;11.868;2023-01-26T00:25:33;14.80;;;5.80;;
6358;SDS011;3212;51.460;11.868;2023-01-26T00:28:55;12.27;;;4.90;;
6358;SDS011;3212;51.460;11.868;2023-01-26T00:32:18;11.23;;;5.00;;
6358;SDS011;3212;51.460;11.868;2023-01-26T00:35:40;12.87;;;6.00;;
6358;SDS011;3212;51.460;11.868;2023-01-26T00:39:03;19.40;;;6.00;;
6358;SDS011;3212;51.460;11.868;2023-01-26T00:42:26;15.27;;;5.97;;
6358;SDS011;3212;51.460;11.868;2023-01-26T00:45:49;11.23;;;5.77;;
6358;SDS011;3212;51.460;11.868;2023-01-26T00:49:12;16.57;;;6.53;;
6358;SDS011;3212;51.460;11.868;2023-01-26T00:52:35;12.73;;;6.00;;
6358;SDS011;3212;51.460;11.868;2023-01-26T00:55:57;15.47;;;6.27;;
6358;SDS011;3212;51.460;11.868;2023-01-26T00:59:20;12.63;;;5.37;;
6358;SDS011;3212;51.460;11.868;2023-01-26T01:02:42;10.80;;;5.30;;
6358;SDS011;3212;51.460;11.868;2023-01-26T01:06:05;13.57;;;5.75;;
6358;SDS011;3212;51.460;11.868;2023-01-26T01:09:28;11.67;;;5.50;;
6358;SDS011;3212;51.460;11.868;2023-01-26T01:12:51;10.50;;;5.33;;
6358;SDS011;3212;51.460;11.868;2023-01-26T01:16:14;10.13;;;5.07;;
6358;SDS011;3212;51.460;11.868;2023-01-26T01:19:36;11.57;;;6.03;;
6358;SDS011;3212;51.460;11.868;2023-01-26T01:22:59;9.53;;;4.73;;
6358;SDS011;3212;51.460;11.868;2023-01-26T01:26:21;10.53;;;5.43;;
6358;SDS011;3212;51.460;11.868;2023-01-26T01:29:44;11.00;;;5.30;;
6358;SDS011;3212;51.460;11.868;2023-01-26T01:33:06;10.10;;;5.50;;
6358;SDS011;3212;51.460;11.868;2023-01-26T01:36:28;12.77;;;5.95;;
6358;SDS011;3212;51.460;11.868;2023-01-26T01:39:51;13.77;;;5.70;;
6358;SDS011;3212;51.460;11.868;2023-01-26T01:43:14;9.13;;;5.10;;
6358;SDS011;3212;51.460;11.868;2023-01-26T01:46:36;9.80;;;4.90;;
6358;SDS011;3212;51.460;11.868;2023-01-26T01:49:58;9.60;;;4.87;;
6358;SDS011;3212;51.460;11.868;2023-01-26T01:53:28;9.27;;;4.40;;
6358;SDS011;3212;51.460;11.868;2023-01-26T01:56:51;8.73;;;4.43;;
6358;SDS011;3212;51.460;11.868;2023-01-26T02:00:15;9.23;;;4.37;;
6358;SDS011;3212;51.460;11.868;2023-01-26T02:03:36;12.50;;;4.93;;
6358;SDS011;3212;51.460;11.868;2023-01-26T02:06:59;7.47;;;4.03;;
6358;SDS011;3212;51.460;11.868;2023-01-26T02:10:21;10.47;;;5.37;;
6358;SDS011;3212;51.460;11.868;2023-01-26T02:13:45;8.00;;;4.10;;
6358;SDS011;3212;51.460;11.868;2023-01-26T02:17:07;10.93;;;5.67;;
6358;SDS011;3212;51.460;11.868;2023-01-26T02:20:33;9.93;;;4.40;;
6358;SDS011;3212;51.460;11.868;2023-01-26T02:24:00;9.67;;;5.00;;
6358;SDS011;3212;51.460;11.868;2023-01-26T02:27:30;8.10;;;4.50;;
6358;SDS011;3212;51.460;11.868;2023-01-26T02:30:53;9.80;;;4.50;;
6358;SDS011;3212;51.460;11.868;2023-01-26T02:34:16;8.83;;;4.47;;
6358;SDS011;3212;51.460;11.868;2023-01-26T02:37:39;8.87;;;4.50;;
6358;SDS011;3212;51.460;11.868;2023-01-26T02:41:03;9.27;;;4.00;;
6358;SDS011;3212;51.460;11.868;2023-01-26T02:44:28;8.70;;;4.30;;
6358;SDS011;3212;51.460;11.868;2023-01-26T02:47:50;8.97;;;4.40;;
6358;SDS011;3212;51.460;11.868;2023-01-26T02:51:12;8.33;;;4.10;;
6358;SDS011;3212;51.460;11.868;2023-01-26T02:54:35;10.13;;;4.83;;
6358;SDS011;3212;51.460;11.868;2023-01-26T02:58:04;11.43;;;4.90;;
6358;SDS011;3212;51.460;11.868;2023-01-26T03:01:27;11.23;;;5.50;;
6358;SDS011;3212;51.460;11.868;2023-01-26T03:04:49;8.10;;;4.70;;
6358;SDS011;3212;51.460;11.868;2023-01-26T03:08:12;11.07;;;5.10;;
6358;SDS011;3212;51.460;11.868;2023-01-26T03:11:35;9.10;;;4.60;;
6358;SDS011;3212;51.460;11.868;2023-01-26T03:15:04;10.10;;;5.27;;
6358;SDS011;3212;51.460;11.868;2023-01-26T03:18:33;11.73;;;5.03;;
6358;SDS011;3212;51.460;11.868;2023-01-26T03:22:01;10.67;;;5.57;;
6358;SDS011;3212;51.460;11.868;2023-01-26T03:25:29;8.90;;;4.45;;
6358;SDS011;3212;51.460;11.868;2023-01-26T03:28:58;11.43;;;4.87;;
6358;SDS011;3212;51.460;11.868;2023-01-26T03:32:21;9.23;;;4.93;;
6358;SDS011;3212;51.460;11.868;2023-01-26T03:35:44;10.73;;;5.10;;
6358;SDS011;3212;51.460;11.868;2023-01-26T03:39:06;10.07;;;4.77;;
6358;SDS011;3212;51.460;11.868;2023-01-26T03:42:29;12.93;;;5.43;;
6358;SDS011;3212;51.460;11.868;2023-01-26T03:45:57;9.60;;;4.47;;
6358;SDS011;3212;51.460;11.868;2023-01-26T03:49:26;8.40;;;4.77;;
6358;SDS011;3212;51.460;11.868;2023-01-26T03:52:55;9.27;;;4.67;;
6358;SDS011;3212;51.460;11.868;2023-01-26T03:56:23;9.43;;;4.63;;
6358;SDS011;3212;51.460;11.868;2023-01-26T03:59:45;9.60;;;4.03;;
6358;SDS011;3212;51.460;11.868;2023-01-26T04:03:09;9.27;;;4.93;;
6358;SDS011;3212;51.460;11.868;2023-01-26T04:06:37;10.80;;;5.00;;
6358;SDS011;3212;51.460;11.868;2023-01-26T04:10:06;10.87;;;5.40;;
6358;SDS011;3212;51.460;11.868;2023-01-26T04:13:29;12.40;;;5.00;;
6358;SDS011;3212;51.460;11.868;2023-01-26T04:16:57;10.97;;;4.83;;
6358;SDS011;3212;51.460;11.868;2023-01-26T04:20:25;8.53;;;4.13;;
6358;SDS011;3212;51.460;11.868;2023-01-26T04:23:56;10.10;;;4.30;;
6358;SDS011;3212;51.460;11.868;2023-01-26T04:27:18;10.30;;;4.90;;
6358;SDS011;3212;51.460;11.868;2023-01-26T04:30:41;13.87;;;5.60;;
6358;SDS011;3212;51.460;11.868;2023-01-26T04:34:05;11.80;;;5.20;;
6358;SDS011;3212;51.460;11.868;2023-01-26T04:37:27;11.57;;;4.90;;
6358;SDS011;3212;51.460;11.868;2023-01-26T04:40:52;11.50;;;5.13;;
6358;SDS011;3212;51.460;11.868;2023-01-26T04:44:13;9.67;;;4.63;;
6358;SDS011;3212;51.460;11.868;2023-01-26T04:47:37;8.07;;;4.47;;
6358;SDS011;3212;51.460;11.868;2023-01-26T04:51:01;10.30;;;5.20;;
6358;SDS011;3212;51.460;11.868;2023-01-26T04:54:23;10.87;;;4.57;;
6358;SDS011;3212;51.460;11.868;2023-01-26T04:57:47;10.20;;;5.13;;
6358;SDS011;3212;51.460;11.868;2023-01-26T05:01:09;9.27;;;4.33;;
6358;SDS011;3212;51.460;11.868;2023-01-26T05:04:32;11.00;;;5.07;;
6358;SDS011;3212;51.460;11.868;2023-01-26T05:07:56;9.27;;;4.80;;
6358;SDS011;3212;51.460;11.868;2023-01-26T05:11:18;8.77;;;4.60;;
6358;SDS011;3212;51.460;11.868;2023-01-26T05:14:40;9.80;;;4.60;;
6358;SDS011;3212;51.460;11.868;2023-01-26T05:18:04;7.53;;;4.37;;
6358;SDS011;3212;51.460;11.868;2023-01-26T05:21:26;7.90;;;3.30;;
6358;SDS011;3212;51.460;11.868;2023-01-26T05:24:48;5.63;;;3.40;;
6358;SDS011;3212;51.460;11.868;2023-01-26T05:28:11;6.70;;;3.30;;
6358;SDS011;3212;51.460;11.868;2023-01-26T05:31:34;10.70;;;3.53;;
6358;SDS011;3212;51.460;11.868;2023-01-26T05:34:57;7.60;;;4.07;;
6358;SDS011;3212;51.460;11.868;2023-01-26T05:38:20;8.67;;;3.70;;
6358;SDS011;3212;51.460;11.868;2023-01-26T05:41:42;6.70;;;3.60;;
6358;SDS011;3212;51.460;11.868;2023-01-26T05:45:05;6.33;;;3.33;;
6358;SDS011;3212;51.460;11.868;2023-01-26T05:48:27;7.70;;;4.20;;
6358;SDS011;3212;51.460;11.868;2023-01-26T05:51:50;8.30;;;4.47;;
6358;SDS011;3212;51.460;11.868;2023-01-26T05:55:13;6.00;;;3.20;;
6358;SDS011;3212;51.460;11.868;2023-01-26T05:58:37;7.27;;;4.03;;
6358;SDS011;3212;51.460;11.868;2023-01-26T06:02:00;8.10;;;4.33;;
6358;SDS011;3212;51.460;11.868;2023-01-26T06:05:23;5.50;;;3.17;;
6358;SDS011;3212;51.460;11.868;2023-01-26T06:08:45;5.20;;;2.90;;
6358;SDS011;3212;51.460;11.868;2023-01-26T06:12:13;6.00;;;3.20;;
6358;SDS011;3212;51.460;11.868;2023-01-26T06:15:38;3.67;;;2.60;;
6358;SDS011;3212;51.460;11.868;2023-01-26T06:19:00;7.70;;;3.70;;
6358;SDS011;3212;51.460;11.868;2023-01-26T06:22:23;6.77;;;3.03;;
6358;SDS011;3212;51.460;11.868;2023-01-26T06:25:46;5.23;;;2.67;;
6358;SDS011;3212;51.460;11.868;2023-01-26T06:29:08;4.27;;;2.70;;
6358;SDS011;3212;51.460;11.868;2023-01-26T06:32:32;4.70;;;3.00;;
6358;SDS011;3212;51.460;11.868;2023-01-26T06:35:55;6.43;;;3.30;;
6358;SDS011;3212;51.460;11.868;2023-01-26T06:39:18;5.73;;;3.13;;
6358;SDS011;3212;51.460;11.868;2023-01-26T06:42:46;5.40;;;3.30;;
6358;SDS011;3212;51.460;11.868;2023-01-26T06:46:08;5.27;;;2.93;;
6358;SDS011;3212;51.460;11.868;2023-01-26T06:49:31;5.17;;;3.00;;
6358;SDS011;3212;51.460;11.868;2023-01-26T06:52:54;5.83;;;3.40;;
6358;SDS011;3212;51.460;11.868;2023-01-26T06:56:17;6.40;;;3.70;;
6358;SDS011;3212;51.460;11.868;2023-01-26T06:59:39;6.43;;;3.80;;
6358;SDS011;3212;51.460;11.868;2023-01-26T07:03:02;6.73;;;3.30;;
6358;SDS011;3212;51.460;11.868;2023-01-26T07:06:24;6.83;;;4.27;;
6358;SDS011;3212;51.460;11.868;2023-01-26T07:09:47;6.77;;;3.70;;
6358;SDS011;3212;51.460;11.868;2023-01-26T07:13:09;5.13;;;3.47;;
6358;SDS011;3212;51.460;11.868;2023-01-26T07:16:32;7.03;;;3.60;;
6358;SDS011;3212;51.460;11.868;2023-01-26T07:19:55;7.80;;;4.30;;
6358;SDS011;3212;51.460;11.868;2023-01-26T07:23:17;7.17;;;4.00;;
6358;SDS011;3212;51.460;11.868;2023-01-26T07:26:40;7.13;;;3.63;;
6358;SDS011;3212;51.460;11.868;2023-01-26T07:30:03;6.73;;;3.67;;
6358;SDS011;3212;51.460;11.868;2023-01-26T07:33:27;7.50;;;3.60;;
6358;SDS011;3212;51.460;11.868;2023-01-26T07:36:51;8.60;;;4.57;;
6358;SDS011;3212;51.460;11.868;2023-01-26T07:40:15;5.93;;;3.40;;
6358;SDS011;3212;51.460;11.868;2023-01-26T07:43:44;8.03;;;3.80;;
6358;SDS011;3212;51.460;11.868;2023-01-26T07:47:07;6.67;;;3.50;;
6358;SDS011;3212;51.460;11.868;2023-01-26T07:50:29;7.70;;;3.83;;
6358;SDS011;3212;51.460;11.868;2023-01-26T07:53:52;6.10;;;3.67;;
6358;SDS011;3212;51.460;11.868;2023-01-26T07:57:14;6.80;;;3.73;;
6358;SDS011;3212;51.460;11.868;2023-01-26T08:00:37;6.35;;;3.40;;
6358;SDS011;3212;51.460;11.868;2023-01-26T08:03:59;6.70;;;3.90;;
6358;SDS011;3212;51.460;11.868;2023-01-26T08:07:22;6.10;;;3.80;;
6358;SDS011;3212;51.460;11.868;2023-01-26T08:10:45;6.20;;;3.67;;
6358;SDS011;3212;51.460;11.868;2023-01-26T08:14:08;6.77;;;3.93;;
6358;SDS011;3212;51.460;11.868;2023-01-26T08:17:31;8.63;;;3.77;;
6358;SDS011;3212;51.460;11.868;2023-01-26T08:20:54;8.73;;;4.10;;
6358;SDS011;3212;51.460;11.868;2023-01-26T08:24:16;9.40;;;4.03;;
6358;SDS011;3212;51.460;11.868;2023-01-26T08:27:38;7.80;;;4.00;;
6358;SDS011;3212;51.460;11.868;2023-01-26T08:31:03;6.27;;;4.17;;
6358;SDS011;3212;51.460;11.868;2023-01-26T08:34:25;8.03;;;4.50;;
6358;SDS011;3212;51.460;11.868;2023-01-26T08:37:47;9.63;;;4.70;;
6358;SDS011;3212;51.460;11.868;2023-01-26T08:41:10;9.00;;;5.00;;
6358;SDS011;3212;51.460;11.868;2023-01-26T08:44:33;13.47;;;5.53;;
6358;SDS011;3212;51.460;11.868;2023-01-26T08:47:55;9.87;;;5.70;;
6358;SDS011;3212;51.460;11.868;2023-01-26T08:51:18;6.93;;;4.10;;
6358;SDS011;3212;51.460;11.868;2023-01-26T08:54:41;6.53;;;3.67;;
6358;SDS011;3212;51.460;11.868;2023-01-26T08:58:04;7.53;;;3.60;;
6358;SDS011;3212;51.460;11.868;2023-01-26T09:01:26;8.63;;;4.07;;
6358;SDS011;3212;51.460;11.868;2023-01-26T09:04:49;11.00;;;4.20;;
6358;SDS011;3212;51.460;11.868;2023-01-26T09:08:11;7.80;;;4.03;;
6358;SDS011;3212;51.460;11.868;2023-01-26T09:11:34;8.17;;;3.97;;
6358;SDS011;3212;51.460;11.868;2023-01-26T09:14:57;8.40;;;4.70;;
6358;SDS011;3212;51.460;11.868;2023-01-26T09:18:19;8.93;;;5.17;;
6358;SDS011;3212;51.460;11.868;2023-01-26T09:21:42;9.87;;;5.77;;
6358;SDS011;3212;51.460;11.868;2023-01-26T09:25:05;14.77;;;6.32;;
6358;SDS011;3212;51.460;11.868;2023-01-26T09:28:28;15.33;;;6.03;;
6358;SDS011;3212;51.460;11.868;2023-01-26T09:31:51;10.47;;;5.47;;
6358;SDS011;3212;51.460;11.868;2023-01-26T09:35:14;12.67;;;6.23;;
6358;SDS011;3212;51.460;11.868;2023-01-26T09:38:36;10.83;;;6.00;;
6358;SDS011;3212;51.460;11.868;2023-01-26T09:42:03;11.63;;;6.17;;
6358;SDS011;3212;51.460;11.868;2023-01-26T09:45:26;10.53;;;5.63;;
6358;SDS011;3212;51.460;11.868;2023-01-26T09:48:52;11.47;;;6.00;;
6358;SDS011;3212;51.460;11.868;2023-01-26T09:52:23;13.50;;;5.13;;
6358;SDS011;3212;51.460;11.868;2023-01-26T09:55:44;12.03;;;6.10;;
6358;SDS011;3212;51.460;11.868;2023-01-26T10:02:58;15.20;;;6.30;;
6358;SDS011;3212;51.460;11.868;2023-01-26T10:06:23;13.87;;;7.20;;
6358;SDS011;3212;51.460;11.868;2023-01-26T10:09:47;15.30;;;7.80;;
6358;SDS011;3212;51.460;11.868;2023-01-26T10:13:11;21.23;;;7.50;;
6358;SDS011;3212;51.460;11.868;2023-01-26T10:16:32;19.17;;;8.07;;
6358;SDS011;3212;51.460;11.868;2023-01-26T10:19:57;18.13;;;8.00;;
6358;SDS011;3212;51.460;11.868;2023-01-26T10:23:24;18.33;;;7.95;;
6358;SDS011;3212;51.460;11.868;2023-01-26T10:26:51;22.00;;;9.57;;
6358;SDS011;3212;51.460;11.868;2023-01-26T10:30:13;20.30;;;8.70;;
6358;SDS011;3212;51.460;11.868;2023-01-26T10:33:36;18.37;;;8.40;;
6358;SDS011;3212;51.460;11.868;2023-01-26T10:37:04;17.40;;;7.60;;
6358;SDS011;3212;51.460;11.868;2023-01-26T10:40:23;23.03;;;9.17;;
6358;SDS011;3212;51.460;11.868;2023-01-26T10:43:52;23.40;;;9.70;;
6358;SDS011;3212;51.460;11.868;2023-01-26T10:47:15;20.73;;;8.93;;
6358;SDS011;3212;51.460;11.868;2023-01-26T10:50:36;27.33;;;10.37;;
6358;SDS011;3212;51.460;11.868;2023-01-26T10:57:36;19.97;;;8.60;;
6358;SDS011;3212;51.460;11.868;2023-01-26T11:01:03;22.70;;;8.90;;
6358;SDS011;3212;51.460;11.868;2023-01-26T11:04:39;24.20;;;9.30;;
6358;SDS011;3212;51.460;11.868;2023-01-26T11:08:02;22.00;;;8.43;;
6358;SDS011;3212;51.460;11.868;2023-01-26T11:11:25;18.40;;;9.10;;
6358;SDS011;3212;51.460;11.868;2023-01-26T11:18:22;22.57;;;8.97;;
6358;SDS011;3212;51.460;11.868;2023-01-26T11:21:48;23.03;;;9.27;;
6358;SDS011;3212;51.460;11.868;2023-01-26T11:25:14;20.20;;;9.20;;
6358;SDS011;3212;51.460;11.868;2023-01-26T11:28:48;18.75;;;8.60;;
6358;SDS011;3212;51.460;11.868;2023-01-26T11:32:25;20.00;;;8.27;;
6358;SDS011;3212;51.460;11.868;2023-01-26T11:35:59;17.73;;;8.43;;
6358;SDS011;3212;51.460;11.868;2023-01-26T11:43:14;19.43;;;8.03;;
6358;SDS011;3212;51.460;11.868;2023-01-26T11:46:44;13.30;;;7.33;;
6358;SDS011;3212;51.460;11.868;2023-01-26T11:50:22;17.10;;;7.93;;
6358;SDS011;3212;51.460;11.868;2023-01-26T11:57:33;17.27;;;7.90;;
6358;SDS011;3212;51.460;11.868;2023-01-26T12:01:06;19.43;;;9.00;;
6358;SDS011;3212;51.460;11.868;2023-01-26T12:04:42;17.80;;;8.02;;
6358;SDS011;3212;51.460;11.868;2023-01-26T12:08:09;16.37;;;7.40;;
6358;SDS011;3212;51.460;11.868;2023-01-26T12:15:01;15.43;;;7.47;;
6358;SDS011;3212;51.460;11.868;2023-01-26T12:18:28;13.60;;;6.70;;
6358;SDS011;3212;51.460;11.868;2023-01-26T12:21:59;14.45;;;7.90;;
6358;SDS011;3212;51.460;11.868;2023-01-26T12:28:59;14.77;;;6.53;;
6358;SDS011;3212;51.460;11.868;2023-01-26T12:32:22;14.40;;;6.33;;
6358;SDS011;3212;51.460;11.868;2023-01-26T12:39:33;12.43;;;6.50;;
6358;SDS011;3212;51.460;11.868;2023-01-26T12:43:01;15.17;;;7.37;;
6358;SDS011;3212;51.460;11.868;2023-01-26T12:46:21;13.25;;;6.97;;
6358;SDS011;3212;51.460;11.868;2023-01-26T12:49:45;12.40;;;6.90;;
6358;SDS011;3212;51.460;11.868;2023-01-26T12:53:13;12.33;;;6.87;;
6358;SDS011;3212;51.460;11.868;2023-01-26T12:56:50;13.68;;;6.82;;
6358;SDS011;3212;51.460;11.868;2023-01-26T13:00:18;11.90;;;6.20;;
6358;SDS011;3212;51.460;11.868;2023-01-26T13:03:43;15.50;;;7.23;;
6358;SDS011;3212;51.460;11.868;2023-01-26T13:07:25;14.43;;;6.90;;
6358;SDS011;3212;51.460;11.868;2023-01-26T13:17:50;12.87;;;6.47;;
6358;SDS011;3212;51.460;11.868;2023-01-26T13:21:11;10.77;;;5.80;;
6358;SDS011;3212;51.460;11.868;2023-01-26T13:24:44;11.27;;;5.77;;
6358;SDS011;3212;51.460;11.868;2023-01-26T13:28:11;13.27;;;6.30;;
6358;SDS011;3212;51.460;11.868;2023-01-26T13:31:30;13.27;;;6.03;;
6358;SDS011;3212;51.460;11.868;2023-01-26T13:34:54;13.50;;;6.45;;
6358;SDS011;3212;51.460;11.868;2023-01-26T13:38:25;13.63;;;6.73;;
6358;SDS011;3212;51.460;11.868;2023-01-26T13:41:55;11.80;;;5.40;;
6358;SDS011;3212;51.460;11.868;2023-01-26T13:45:24;10.23;;;5.57;;
6358;SDS011;3212;51.460;11.868;2023-01-26T13:48:48;11.77;;;6.07;;
6358;SDS011;3212;51.460;11.868;2023-01-26T13:52:15;14.53;;;6.10;;
6358;SDS011;3212;51.460;11.868;2023-01-26T13:55:47;13.07;;;6.18;;
6358;SDS011;3212;51.460;11.868;2023-01-26T13:59:09;14.50;;;6.23;;
6358;SDS011;3212;51.460;11.868;2023-01-26T14:02:33;11.53;;;5.57;;
6358;SDS011;3212;51.460;11.868;2023-01-26T14:05:56;13.57;;;5.67;;
6358;SDS011;3212;51.460;11.868;2023-01-26T14:09:18;13.90;;;6.07;;
6358;SDS011;3212;51.460;11.868;2023-01-26T14:12:42;13.97;;;6.10;;
6358;SDS011;3212;51.460;11.868;2023-01-26T14:16:04;13.53;;;6.10;;
6358;SDS011;3212;51.460;11.868;2023-01-26T14:19:27;13.70;;;5.93;;
6358;SDS011;3212;51.460;11.868;2023-01-26T14:26:33;13.70;;;6.50;;
6358;SDS011;3212;51.460;11.868;2023-01-26T14:29:56;14.53;;;6.63;;
6358;SDS011;3212;51.460;11.868;2023-01-26T14:33:18;18.03;;;6.60;;
6358;SDS011;3212;51.460;11.868;2023-01-26T14:36:41;16.10;;;6.20;;
6358;SDS011;3212;51.460;11.868;2023-01-26T14:40:13;16.13;;;6.40;;
6358;SDS011;3212;51.460;11.868;2023-01-26T14:43:42;13.70;;;6.53;;
6358;SDS011;3212;51.460;11.868;2023-01-26T14:47:13;12.00;;;5.83;;
6358;SDS011;3212;51.460;11.868;2023-01-26T14:50:33;13.60;;;5.77;;
6358;SDS011;3212;51.460;11.868;2023-01-26T14:53:58;15.67;;;7.23;;
6358;SDS011;3212;51.460;11.868;2023-01-26T14:57:21;11.07;;;5.00;;
6358;SDS011;3212;51.460;11.868;2023-01-26T15:00:46;15.40;;;6.70;;
6358;SDS011;3212;51.460;11.868;2023-01-26T15:04:14;15.23;;;5.70;;
6358;SDS011;3212;51.460;11.868;2023-01-26T15:07:36;12.10;;;5.87;;
6358;SDS011;3212;51.460;11.868;2023-01-26T15:10:58;17.20;;;8.10;;
6358;SDS011;3212;51.460;11.868;2023-01-26T15:14:25;15.20;;;6.70;;
6358;SDS011;3212;51.460;11.868;2023-01-26T15:17:45;12.77;;;5.93;;
6358;SDS011;3212;51.460;11.868;2023-01-26T15:21:10;14.40;;;5.73;;
6358;SDS011;3212;51.460;11.868;2023-01-26T15:24:33;13.93;;;6.20;;
6358;SDS011;3212;51.460;11.868;2023-01-26T15:27:55;23.30;;;9.80;;
6358;SDS011;3212;51.460;11.868;2023-01-26T15:31:36;11.63;;;5.95;;
6358;SDS011;3212;51.460;11.868;2023-01-26T15:34:43;11.30;;;5.50;;
6358;SDS011;3212;51.460;11.868;2023-01-26T15:38:08;13.90;;;5.53;;
6358;SDS011;3212;51.460;11.868;2023-01-26T15:41:31;10.53;;;4.90;;
6358;SDS011;3212;51.460;11.868;2023-01-26T15:44:54;13.37;;;5.40;;
6358;SDS011;3212;51.460;11.868;2023-01-26T15:48:17;12.40;;;5.70;;
6358;SDS011;3212;51.460;11.868;2023-01-26T15:51:39;9.97;;;4.90;;
6358;SDS011;3212;51.460;11.868;2023-01-26T15:55:10;11.43;;;5.50;;
6358;SDS011;3212;51.460;11.868;2023-01-26T15:58:26;10.83;;;5.13;;
6358;SDS011;3212;51.460;11.868;2023-01-26T16:01:49;11.97;;;5.43;;
6358;SDS011;3212;51.460;11.868;2023-01-26T16:05:15;9.15;;;4.70;;
6358;SDS011;3212;51.460;11.868;2023-01-26T16:08:37;11.53;;;5.20;;
6358;SDS011;3212;51.460;11.868;2023-01-26T16:12:00;12.17;;;6.50;;
6358;SDS011;3212;51.460;11.868;2023-01-26T16:15:26;13.53;;;5.30;;
6358;SDS011;3212;51.460;11.868;2023-01-26T16:19:02;10.79;;;4.58;;
6358;SDS011;3212;51.460;11.868;2023-01-26T16:22:24;13.47;;;5.30;;
6358;SDS011;3212;51.460;11.868;2023-01-26T16:25:47;13.70;;;6.00;;
6358;SDS011;3212;51.460;11.868;2023-01-26T16:29:10;13.43;;;5.43;;
6358;SDS011;3212;51.460;11.868;2023-01-26T16:32:32;16.03;;;7.00;;
6358;SDS011;3212;51.460;11.868;2023-01-26T16:35:55;12.93;;;5.57;;
6358;SDS011;3212;51.460;11.868;2023-01-26T16:39:18;11.57;;;6.23;;
6358;SDS011;3212;51.460;11.868;2023-01-26T16:42:43;16.30;;;5.77;;
6358;SDS011;3212;51.460;11.868;2023-01-26T16:46:04;12.57;;;6.20;;
6358;SDS011;3212;51.460;11.868;2023-01-26T16:49:27;13.10;;;6.70;;
6358;SDS011;3212;51.460;11.868;2023-01-26T16:52:49;19.00;;;6.80;;
6358;SDS011;3212;51.460;11.868;2023-01-26T16:56:13;14.53;;;6.47;;
6358;SDS011;3212;51.460;11.868;2023-01-26T16:59:36;14.17;;;5.83;;
6358;SDS011;3212;51.460;11.868;2023-01-26T17:02:58;20.80;;;6.60;;
6358;SDS011;3212;51.460;11.868;2023-01-26T17:06:20;18.20;;;6.90;;
6358;SDS011;3212;51.460;11.868;2023-01-26T17:09:43;18.53;;;8.57;;
6358;SDS011;3212;51.460;11.868;2023-01-26T17:13:05;27.90;;;12.37;;
6358;SDS011;3212;51.460;11.868;2023-01-26T17:16:28;29.30;;;13.90;;
6358;SDS011;3212;51.460;11.868;2023-01-26T17:19:51;15.70;;;7.30;;
6358;SDS011;3212;51.460;11.868;2023-01-26T17:23:15;25.23;;;8.00;;
6358;SDS011;3212;51.460;11.868;2023-01-26T17:26:38;23.90;;;8.33;;
6358;SDS011;3212;51.460;11.868;2023-01-26T17:30:01;12.20;;;5.70;;
6358;SDS011;3212;51.460;11.868;2023-01-26T17:33:24;23.02;;;8.98;;
6358;SDS011;3212;51.460;11.868;2023-01-26T17:36:46;13.10;;;5.80;;
6358;SDS011;3212;51.460;11.868;2023-01-26T17:40:10;11.77;;;5.47;;
6358;SDS011;3212;51.460;11.868;2023-01-26T17:43:34;15.23;;;6.20;;
6358;SDS011;3212;51.460;11.868;2023-01-26T17:46:56;15.55;;;5.47;;
6358;SDS011;3212;51.460;11.868;2023-01-26T17:50:19;12.37;;;5.17;;
6358;SDS011;3212;51.460;11.868;2023-01-26T17:53:43;10.67;;;4.73;;
6358;SDS011;3212;51.460;11.868;2023-01-26T17:57:05;10.43;;;4.90;;
6358;SDS011;3212;51.460;11.868;2023-01-26T18:00:27;12.70;;;5.70;;
6358;SDS011;3212;51.460;11.868;2023-01-26T18:03:49;11.50;;;5.53;;
6358;SDS011;3212;51.460;11.868;2023-01-26T18:07:13;9.60;;;4.93;;
6358;SDS011;3212;51.460;11.868;2023-01-26T18:10:35;10.40;;;5.23;;
6358;SDS011;3212;51.460;11.868;2023-01-26T18:13:58;13.10;;;5.10;;
6358;SDS011;3212;51.460;11.868;2023-01-26T18:17:20;9.17;;;4.20;;
6358;SDS011;3212;51.460;11.868;2023-01-26T18:20:43;8.50;;;4.33;;
6358;SDS011;3212;51.460;11.868;2023-01-26T18:24:06;9.13;;;4.97;;
6358;SDS011;3212;51.460;11.868;2023-01-26T18:27:28;9.80;;;5.17;;
6358;SDS011;3212;51.460;11.868;2023-01-26T18:30:50;16.80;;;5.57;;
6358;SDS011;3212;51.460;11.868;2023-01-26T18:34:13;11.00;;;5.40;;
6358;SDS011;3212;51.460;11.868;2023-01-26T18:37:36;9.40;;;5.00;;
6358;SDS011;3212;51.460;11.868;2023-01-26T18:40:58;10.70;;;5.10;;
6358;SDS011;3212;51.460;11.868;2023-01-26T18:44:21;18.10;;;7.87;;
6358;SDS011;3212;51.460;11.868;2023-01-26T18:47:43;12.67;;;6.30;;
6358;SDS011;3212;51.460;11.868;2023-01-26T18:51:07;13.40;;;6.00;;
6358;SDS011;3212;51.460;11.868;2023-01-26T18:54:29;13.43;;;5.87;;
6358;SDS011;3212;51.460;11.868;2023-01-26T18:57:52;15.63;;;8.20;;
6358;SDS011;3212;51.460;11.868;2023-01-26T19:01:15;13.63;;;6.33;;
6358;SDS011;3212;51.460;11.868;2023-01-26T19:04:38;12.27;;;6.23;;
6358;SDS011;3212;51.460;11.868;2023-01-26T19:08:02;13.20;;;6.83;;
6358;SDS011;3212;51.460;11.868;2023-01-26T19:11:27;12.77;;;6.57;;
6358;SDS011;3212;51.460;11.868;2023-01-26T19:14:48;16.13;;;6.70;;
6358;SDS011;3212;51.460;11.868;2023-01-26T19:18:12;13.77;;;6.10;;
6358;SDS011;3212;51.460;11.868;2023-01-26T19:21:35;17.57;;;6.30;;
6358;SDS011;3212;51.460;11.868;2023-01-26T19:24:57;13.43;;;6.53;;
6358;SDS011;3212;51.460;11.868;2023-01-26T19:28:21;16.77;;;7.10;;
6358;SDS011;3212;51.460;11.868;2023-01-26T19:31:44;16.37;;;7.53;;
6358;SDS011;3212;51.460;11.868;2023-01-26T19:35:07;22.70;;;7.60;;
6358;SDS011;3212;51.460;11.868;2023-01-26T19:38:30;18.47;;;7.53;;
6358;SDS011;3212;51.460;11.868;2023-01-26T19:41:52;17.73;;;7.23;;
6358;SDS011;3212;51.460;11.868;2023-01-26T19:45:14;13.77;;;7.50;;
6358;SDS011;3212;51.460;11.868;2023-01-26T19:48:38;24.70;;;9.40;;
6358;SDS011;3212;51.460;11.868;2023-01-26T19:52:00;15.07;;;7.30;;
6358;SDS011;3212;51.460;11.868;2023-01-26T19:55:22;16.70;;;7.77;;
6358;SDS011;3212;51.460;11.868;2023-01-26T19:58:48;19.23;;;8.37;;
6358;SDS011;3212;51.460;11.868;2023-01-26T20:02:10;18.37;;;7.33;;
6358;SDS011;3212;51.460;11.868;2023-01-26T20:05:34;15.87;;;7.37;;
6358;SDS011;3212;51.460;11.868;2023-01-26T20:08:57;16.07;;;7.20;;
6358;SDS011;3212;51.460;11.868;2023-01-26T20:12:19;22.73;;;8.70;;
6358;SDS011;3212;51.460;11.868;2023-01-26T20:15:41;17.47;;;8.20;;
6358;SDS011;3212;51.460;11.868;2023-01-26T20:19:04;22.10;;;8.80;;
6358;SDS011;3212;51.460;11.868;2023-01-26T20:22:26;19.07;;;7.80;;
6358;SDS011;3212;51.460;11.868;2023-01-26T20:25:49;20.00;;;7.60;;
6358;SDS011;3212;51.460;11.868;2023-01-26T20:29:13;19.63;;;8.33;;
6358;SDS011;3212;51.460;11.868;2023-01-26T20:32:35;21.37;;;7.77;;
6358;SDS011;3212;51.460;11.868;2023-01-26T20:35:58;20.63;;;8.17;;
6358;SDS011;3212;51.460;11.868;2023-01-26T20:39:20;19.27;;;7.47;;
6358;SDS011;3212;51.460;11.868;2023-01-26T20:42:42;23.37;;;9.27;;
6358;SDS011;3212;51.460;11.868;2023-01-26T20:46:06;23.87;;;9.13;;
6358;SDS011;3212;51.460;11.868;2023-01-26T20:49:29;20.67;;;7.77;;
6358;SDS011;3212;51.460;11.868;2023-01-26T20:52:52;16.37;;;7.80;;
6358;SDS011;3212;51.460;11.868;2023-01-26T20:56:15;22.10;;;7.53;;
6358;SDS011;3212;51.460;11.868;2023-01-26T20:59:38;20.83;;;8.80;;
6358;SDS011;3212;51.460;11.868;2023-01-26T21:03:00;19.10;;;8.10;;
6358;SDS011;3212;51.460;11.868;2023-01-26T21:06:23;18.13;;;8.00;;
6358;SDS011;3212;51.460;11.868;2023-01-26T21:09:46;17.77;;;7.87;;
6358;SDS011;3212;51.460;11.868;2023-01-26T21:13:08;17.10;;;7.83;;
6358;SDS011;3212;51.460;11.868;2023-01-26T21:16:31;23.93;;;8.90;;